createdAt,value
2022-09-04T00:01:29.910Z,15.40
2022-09-04T00:03:56.561Z,15.40
2022-09-04T00:06:23.335Z,15.30
2022-09-04T00:08:49.900Z,15.30
2022-09-04T00:11:17.280Z,15.30
2022-09-04T00:13:43.819Z,15.30
2022-09-04T00:16:10.472Z,15.30
2022-09-04T00:18:37.048Z,15.30
2022-09-04T00:21:03.594Z,15.30
2022-09-04T00:23:30.151Z,15.30
2022-09-04T00:25:56.701Z,15.30
2022-09-04T00:28:23.301Z,15.30
2022-09-04T00:30:49.893Z,15.30
2022-09-04T00:33:16.509Z,15.30
2022-09-04T00:35:43.102Z,15.30
2022-09-04T00:38:09.654Z,15.30
2022-09-04T00:40:36.215Z,15.30
2022-09-04T00:43:02.789Z,15.30
2022-09-04T00:45:29.413Z,15.30
2022-09-04T00:47:56.042Z,15.20
2022-09-04T00:50:22.627Z,15.10
2022-09-04T00:52:49.142Z,15.10
2022-09-04T00:55:20.233Z,15.10
2022-09-04T00:57:46.796Z,15.10
2022-09-04T01:00:13.350Z,15.00
2022-09-04T01:02:39.934Z,15.00
2022-09-04T01:05:06.504Z,15.00
2022-09-04T01:07:33.118Z,15.00
2022-09-04T01:09:59.680Z,15.00
2022-09-04T01:12:26.243Z,15.00
2022-09-04T01:14:53.098Z,15.00
2022-09-04T01:17:19.901Z,15.00
2022-09-04T01:19:46.461Z,15.00
2022-09-04T01:22:13.052Z,15.00
2022-09-04T01:24:39.705Z,15.00
2022-09-04T01:27:06.205Z,15.00
2022-09-04T01:29:32.806Z,15.00
2022-09-04T01:31:59.392Z,15.00
2022-09-04T01:34:25.935Z,15.00
2022-09-04T01:36:52.514Z,15.00
2022-09-04T01:39:19.949Z,15.00
2022-09-04T01:41:46.558Z,15.00
2022-09-04T01:44:13.124Z,15.00
2022-09-04T01:46:39.722Z,15.00
2022-09-04T01:49:06.281Z,15.00
2022-09-04T01:51:32.803Z,15.00
2022-09-04T01:53:59.394Z,15.00
2022-09-04T01:56:25.954Z,15.00
2022-09-04T01:58:52.504Z,15.00
2022-09-04T02:01:21.181Z,15.00
2022-09-04T02:03:48.031Z,15.00
2022-09-04T02:06:14.594Z,15.00
2022-09-04T02:08:41.164Z,15.00
2022-09-04T02:11:07.722Z,15.00
2022-09-04T02:13:34.289Z,15.00
2022-09-04T02:16:00.881Z,15.00
2022-09-04T02:18:27.478Z,15.00
2022-09-04T02:20:54.041Z,15.00
2022-09-04T02:23:20.601Z,15.00
2022-09-04T02:25:47.181Z,15.00
2022-09-04T02:28:13.737Z,14.90
2022-09-04T02:30:40.298Z,14.90
2022-09-04T02:33:06.822Z,14.90
2022-09-04T02:35:33.387Z,14.90
2022-09-04T02:37:59.947Z,14.90
2022-09-04T02:40:27.596Z,14.80
2022-09-04T02:42:54.308Z,14.80
2022-09-04T02:45:20.867Z,14.80
2022-09-04T02:47:47.445Z,14.80
2022-09-04T02:50:14.052Z,14.80
2022-09-04T02:52:40.611Z,14.80
2022-09-04T02:55:07.169Z,14.80
2022-09-04T02:57:33.866Z,14.80
2022-09-04T03:00:00.422Z,14.70
2022-09-04T03:02:27.031Z,14.70
2022-09-04T03:04:53.636Z,14.80
2022-09-04T03:07:20.190Z,14.70
2022-09-04T03:09:46.745Z,14.70
2022-09-04T03:12:13.274Z,14.70
2022-09-04T03:14:39.844Z,14.70
2022-09-04T03:17:06.401Z,14.70
2022-09-04T03:19:32.944Z,14.70
2022-09-04T03:22:01.642Z,14.70
2022-09-04T03:24:28.194Z,14.70
2022-09-04T03:26:54.772Z,14.70
2022-09-04T03:29:21.330Z,14.60
2022-09-04T03:31:47.940Z,14.60
2022-09-04T03:34:14.538Z,14.60
2022-09-04T03:36:41.097Z,14.60
2022-09-04T03:39:07.641Z,14.60
2022-09-04T03:41:34.214Z,14.60
2022-09-04T03:44:00.776Z,14.60
2022-09-04T03:46:27.312Z,14.50
2022-09-04T03:48:53.913Z,14.50
2022-09-04T03:51:20.486Z,14.50
2022-09-04T03:53:47.090Z,14.50
2022-09-04T03:56:13.645Z,14.50
2022-09-04T03:58:40.263Z,14.50
2022-09-04T04:01:07.221Z,14.50
2022-09-04T04:03:33.753Z,14.40
2022-09-04T04:06:00.322Z,14.50
2022-09-04T04:08:26.856Z,14.50
2022-09-04T04:10:53.424Z,14.50
2022-09-04T04:13:19.978Z,14.40
2022-09-04T04:15:47.601Z,14.40
2022-09-04T04:18:14.182Z,14.40
2022-09-04T04:20:40.734Z,14.40
2022-09-04T04:23:07.311Z,14.30
2022-09-04T04:25:33.830Z,14.40
2022-09-04T04:28:00.490Z,14.30
2022-09-04T04:30:27.066Z,14.30
2022-09-04T04:32:53.567Z,14.30
2022-09-04T04:35:20.086Z,14.30
2022-09-04T04:37:46.653Z,14.30
2022-09-04T04:40:13.337Z,14.30
2022-09-04T04:42:39.954Z,14.30
2022-09-04T04:45:06.529Z,14.30
2022-09-04T04:47:33.082Z,14.30
2022-09-04T04:49:59.658Z,14.30
2022-09-04T04:52:26.219Z,14.40
2022-09-04T04:54:52.789Z,14.30
2022-09-04T04:57:19.341Z,14.30
2022-09-04T04:59:45.898Z,14.40
2022-09-04T05:02:12.541Z,14.40
2022-09-04T05:04:39.116Z,14.40
2022-09-04T05:07:05.626Z,14.40
2022-09-04T05:09:32.151Z,14.30
2022-09-04T05:11:58.709Z,14.40
2022-09-04T05:14:25.264Z,14.40
2022-09-04T05:16:55.519Z,14.40
2022-09-04T05:19:22.579Z,14.30
2022-09-04T05:21:49.083Z,14.40
2022-09-04T05:24:15.581Z,14.40
2022-09-04T05:26:42.168Z,14.40
2022-09-04T05:29:08.677Z,14.40
2022-09-04T05:31:37.713Z,14.40
2022-09-04T05:34:04.684Z,14.40
2022-09-04T05:36:31.194Z,14.40
2022-09-04T05:38:57.794Z,14.30
2022-09-04T05:41:24.462Z,14.30
2022-09-04T05:43:51.027Z,14.40
2022-09-04T05:46:17.590Z,14.40
2022-09-04T05:48:44.136Z,14.40
2022-09-04T05:51:10.642Z,14.40
2022-09-04T05:53:37.161Z,14.40
2022-09-04T05:56:12.867Z,14.40
2022-09-04T05:58:39.374Z,14.40
2022-09-04T06:01:06.042Z,14.50
2022-09-04T06:03:32.617Z,14.50
2022-09-04T06:05:59.121Z,14.50
2022-09-04T06:08:28.706Z,14.60
2022-09-04T06:10:55.534Z,14.60
2022-09-04T06:13:22.152Z,14.60
2022-09-04T06:15:48.821Z,14.70
2022-09-04T06:18:15.423Z,14.70
2022-09-04T06:20:41.985Z,14.80
2022-09-04T06:23:08.561Z,14.80
2022-09-04T06:25:35.060Z,14.80
2022-09-04T06:28:01.710Z,14.90
2022-09-04T06:30:28.282Z,14.90
2022-09-04T06:32:54.806Z,14.90
2022-09-04T06:35:21.320Z,15.00
2022-09-04T06:37:47.875Z,15.00
2022-09-04T06:40:14.407Z,15.00
2022-09-04T06:42:40.970Z,15.10
2022-09-04T06:45:07.474Z,15.20
2022-09-04T06:47:34.014Z,15.20
2022-09-04T06:50:00.568Z,15.20
2022-09-04T06:52:27.170Z,15.30
2022-09-04T06:54:53.857Z,15.30
2022-09-04T06:57:20.422Z,15.40
2022-09-04T06:59:46.918Z,15.40
2022-09-04T07:02:13.599Z,15.50
2022-09-04T07:04:40.266Z,15.50
2022-09-04T07:07:06.818Z,15.60
2022-09-04T07:09:33.386Z,15.60
2022-09-04T07:11:59.889Z,15.60
2022-09-04T07:14:26.472Z,15.60
2022-09-04T07:16:52.982Z,15.70
2022-09-04T07:19:19.510Z,15.70
2022-09-04T07:21:46.079Z,15.70
2022-09-04T07:24:12.637Z,15.70
2022-09-04T07:26:39.141Z,15.80
2022-09-04T07:29:05.815Z,15.80
2022-09-04T07:31:32.415Z,15.80
2022-09-04T07:33:58.958Z,15.80
2022-09-04T07:36:29.546Z,15.90
2022-09-04T07:38:58.341Z,15.90
2022-09-04T07:41:24.873Z,15.90
2022-09-04T07:43:54.735Z,16.00
2022-09-04T07:46:21.644Z,16.00
2022-09-04T07:48:48.379Z,16.10
2022-09-04T07:51:14.938Z,16.10
2022-09-04T07:53:41.492Z,16.10
2022-09-04T07:56:08.083Z,16.10
2022-09-04T07:58:34.596Z,16.20
2022-09-04T08:01:01.162Z,16.30
2022-09-04T08:03:27.746Z,16.30
2022-09-04T08:05:54.250Z,16.30
2022-09-04T08:08:20.875Z,16.30
2022-09-04T08:10:47.578Z,16.40
2022-09-04T08:13:14.117Z,16.40
2022-09-04T08:15:42.734Z,16.40
2022-09-04T08:18:09.516Z,16.50
2022-09-04T08:20:36.030Z,16.50
2022-09-04T08:23:02.530Z,16.50
2022-09-04T08:25:29.050Z,16.60
2022-09-04T08:27:55.625Z,16.60
2022-09-04T08:30:22.218Z,16.70
2022-09-04T08:32:48.775Z,16.70
2022-09-04T08:35:15.334Z,16.70
2022-09-04T08:37:41.863Z,16.80
2022-09-04T08:40:08.442Z,16.80
2022-09-04T08:42:35.042Z,16.80
2022-09-04T08:45:01.598Z,16.80
2022-09-04T08:47:28.362Z,16.90
2022-09-04T08:49:55.057Z,16.90
2022-09-04T08:52:21.619Z,17.00
2022-09-04T08:54:48.210Z,17.10
2022-09-04T08:57:14.765Z,17.10
2022-09-04T08:59:41.331Z,17.10
2022-09-04T09:02:07.951Z,17.10
2022-09-04T09:04:34.537Z,17.10
2022-09-04T09:07:01.117Z,17.20
2022-09-04T09:09:27.776Z,17.20
2022-09-04T09:11:54.366Z,17.20
2022-09-04T09:14:20.917Z,17.20
2022-09-04T09:16:47.469Z,17.20
2022-09-04T09:19:14.057Z,17.20
2022-09-04T09:21:40.622Z,17.20
2022-09-04T09:24:07.148Z,17.20
2022-09-04T09:26:33.707Z,17.20
2022-09-04T09:29:00.256Z,17.30
2022-09-04T09:31:26.758Z,17.30
2022-09-04T09:33:53.318Z,17.40
2022-09-04T09:36:20.986Z,17.40
2022-09-04T09:38:47.541Z,17.50
2022-09-04T09:41:14.104Z,17.50
2022-09-04T09:43:40.626Z,17.60
2022-09-04T09:46:07.230Z,17.70
2022-09-04T09:48:33.833Z,17.70
2022-09-04T09:51:00.405Z,17.70
2022-09-04T09:53:26.906Z,17.70
2022-09-04T09:55:53.464Z,17.80
2022-09-04T09:58:20.242Z,17.80
2022-09-04T10:00:46.774Z,17.80
2022-09-04T10:03:13.368Z,17.90
2022-09-04T10:05:39.974Z,18.00
2022-09-04T10:08:06.562Z,18.00
2022-09-04T10:10:33.277Z,18.10
2022-09-04T10:12:59.857Z,18.20
2022-09-04T10:15:26.429Z,18.30
2022-09-04T10:17:52.987Z,18.30
2022-09-04T10:20:19.574Z,18.30
2022-09-04T10:22:46.149Z,18.40
2022-09-04T10:25:12.717Z,18.50
2022-09-04T10:27:43.822Z,18.50
2022-09-04T10:30:10.649Z,18.60
2022-09-04T10:32:37.213Z,18.70
2022-09-04T10:35:03.822Z,18.80
2022-09-04T10:37:30.325Z,18.80
2022-09-04T10:39:56.931Z,18.80
2022-09-04T10:42:23.545Z,18.80
2022-09-04T10:44:50.052Z,18.80
2022-09-04T10:47:16.632Z,18.80
2022-09-04T10:49:43.240Z,18.90
2022-09-04T10:52:09.798Z,18.90
2022-09-04T10:54:36.371Z,19.00
2022-09-04T10:57:02.889Z,19.20
2022-09-04T10:59:29.453Z,19.30
2022-09-04T11:01:56.082Z,19.40
2022-09-04T11:04:22.692Z,19.40
2022-09-04T11:06:49.191Z,19.50
2022-09-04T11:09:15.782Z,19.50
2022-09-04T11:11:42.351Z,19.50
2022-09-04T11:14:08.913Z,19.50
2022-09-04T11:16:35.452Z,19.60
2022-09-04T11:19:02.046Z,19.60
2022-09-04T11:21:28.592Z,19.70
2022-09-04T11:23:55.097Z,19.70
2022-09-04T11:26:21.662Z,19.80
2022-09-04T11:28:48.394Z,20.00
2022-09-04T11:31:15.022Z,20.10
2022-09-04T11:33:41.608Z,20.10
2022-09-04T11:36:08.207Z,20.10
2022-09-04T11:41:15.111Z,20.00
2022-09-04T11:43:41.614Z,19.90
2022-09-04T11:46:08.189Z,19.80
2022-09-04T11:48:34.796Z,19.80
2022-09-04T11:51:01.298Z,19.80
2022-09-04T11:53:27.857Z,19.80
2022-09-04T11:55:54.398Z,19.80
2022-09-04T11:58:20.907Z,19.90
2022-09-04T12:00:47.582Z,19.80
2022-09-04T12:03:14.171Z,19.80
2022-09-04T12:05:40.666Z,19.80
2022-09-04T12:08:07.222Z,19.80
2022-09-04T12:10:33.798Z,19.80
2022-09-04T12:13:00.353Z,19.90
2022-09-04T12:15:41.598Z,19.90
2022-09-04T12:18:08.106Z,19.90
2022-09-04T12:20:34.674Z,19.90
2022-09-04T12:23:01.275Z,20.00
2022-09-04T12:25:27.834Z,20.10
2022-09-04T12:27:54.414Z,20.20
2022-09-04T12:30:21.011Z,20.20
2022-09-04T12:32:47.574Z,20.30
2022-09-04T12:35:14.257Z,20.40
2022-09-04T12:37:40.845Z,20.60
2022-09-04T12:40:07.484Z,20.90
2022-09-04T12:42:34.073Z,21.10
2022-09-04T12:45:00.666Z,21.30
2022-09-04T12:47:27.229Z,21.60
2022-09-04T12:49:53.796Z,21.70
2022-09-04T12:52:20.402Z,21.90
2022-09-04T12:54:46.902Z,22.10
2022-09-04T12:57:13.406Z,22.30
2022-09-04T12:59:39.977Z,22.40
2022-09-04T13:02:06.614Z,22.40
2022-09-04T13:04:33.293Z,22.30
2022-09-04T13:06:59.849Z,22.00
2022-09-04T13:09:27.456Z,21.90
2022-09-04T13:11:54.029Z,21.70
2022-09-04T13:14:20.532Z,21.40
2022-09-04T13:16:47.033Z,21.10
2022-09-04T13:19:13.641Z,20.80
2022-09-04T13:21:40.867Z,20.50
2022-09-04T13:24:07.429Z,20.20
2022-09-04T13:26:34.028Z,20.00
2022-09-04T13:29:00.595Z,19.70
2022-09-04T13:31:27.728Z,19.40
2022-09-04T13:33:54.344Z,19.20
2022-09-04T13:36:22.984Z,19.20
2022-09-04T13:38:49.730Z,19.20
2022-09-04T13:41:16.302Z,19.20
2022-09-04T13:43:42.860Z,19.20
2022-09-04T13:46:09.440Z,19.20
2022-09-04T13:48:35.990Z,19.20
2022-09-04T13:51:02.546Z,19.20
2022-09-04T13:53:39.852Z,19.20
2022-09-04T13:56:06.516Z,19.20
2022-09-04T13:58:33.095Z,19.20
2022-09-04T14:00:59.680Z,19.20
2022-09-04T14:03:26.420Z,19.20
2022-09-04T14:05:53.013Z,19.20
2022-09-04T14:08:19.691Z,19.20
2022-09-04T14:10:46.371Z,19.30
2022-09-04T14:13:12.938Z,19.30
2022-09-04T14:15:39.488Z,19.30
2022-09-04T14:18:06.074Z,19.30
2022-09-04T14:20:32.642Z,19.30
2022-09-04T14:22:59.296Z,19.30
2022-09-04T14:25:29.910Z,19.40
2022-09-04T14:27:57.200Z,19.40
2022-09-04T14:30:23.979Z,19.40
2022-09-04T14:32:50.727Z,19.50
2022-09-04T14:35:17.240Z,19.50
2022-09-04T14:37:43.803Z,19.50
2022-09-04T14:40:10.386Z,19.50
2022-09-04T14:42:36.909Z,19.50
2022-09-04T14:45:03.445Z,19.50
2022-09-04T14:47:30.066Z,19.60
2022-09-04T14:49:56.574Z,19.60
2022-09-04T14:52:23.175Z,19.60
2022-09-04T14:54:49.731Z,19.60
2022-09-04T14:57:16.301Z,19.60
2022-09-04T14:59:42.953Z,19.60
2022-09-04T15:02:09.639Z,19.60
2022-09-04T15:04:37.032Z,19.60
2022-09-04T15:07:11.950Z,19.70
2022-09-04T15:09:38.754Z,19.70
2022-09-04T15:12:23.719Z,19.80
2022-09-04T15:14:51.520Z,19.90
2022-09-04T15:17:18.972Z,20.20
2022-09-04T15:19:45.529Z,20.30
2022-09-04T15:22:12.214Z,20.30
2022-09-04T15:24:38.777Z,20.30
2022-09-04T15:27:05.336Z,20.30
2022-09-04T15:29:33.473Z,20.30
2022-09-04T15:32:00.023Z,20.30
2022-09-04T15:34:26.655Z,20.30
2022-09-04T15:36:53.208Z,20.30
2022-09-04T15:39:20.518Z,20.30
2022-09-04T15:41:47.135Z,20.30
2022-09-04T15:44:13.733Z,20.30
2022-09-04T15:46:40.339Z,20.30
2022-09-04T15:49:06.973Z,20.40
2022-09-04T15:51:33.491Z,20.40
2022-09-04T15:54:00.099Z,20.50
2022-09-04T15:56:26.714Z,20.50
2022-09-04T15:58:53.281Z,20.50
2022-09-04T16:01:19.891Z,20.50
2022-09-04T16:03:46.453Z,20.40
2022-09-04T16:06:13.028Z,20.40
2022-09-04T16:08:39.529Z,20.40
2022-09-04T16:11:06.100Z,20.40
2022-09-04T16:13:32.658Z,20.40
2022-09-04T16:16:03.521Z,20.30
2022-09-04T16:18:30.884Z,20.30
2022-09-04T16:20:57.444Z,20.30
2022-09-04T16:23:24.002Z,20.30
2022-09-04T16:25:51.452Z,20.20
2022-09-04T16:28:18.145Z,20.20
2022-09-04T16:30:44.761Z,20.20
2022-09-04T16:33:25.096Z,20.20
2022-09-04T16:35:54.144Z,20.10
2022-09-04T16:38:24.095Z,20.10
2022-09-04T16:40:50.934Z,20.10
2022-09-04T16:43:17.481Z,20.10
2022-09-04T16:45:44.063Z,20.10
2022-09-04T16:48:15.808Z,20.00
2022-09-04T16:50:57.191Z,20.00
2022-09-04T16:53:25.984Z,20.00
2022-09-04T16:55:52.551Z,19.90
2022-09-04T16:58:19.217Z,19.90
2022-09-04T17:00:45.843Z,19.80
2022-09-04T17:03:12.494Z,19.80
2022-09-04T17:05:39.123Z,19.80
2022-09-04T17:08:05.679Z,19.80
2022-09-04T17:10:36.176Z,19.80
2022-09-04T17:13:03.161Z,19.70
2022-09-04T17:15:32.447Z,19.70
2022-09-04T17:17:59.054Z,19.70
2022-09-04T17:20:38.432Z,19.70
2022-09-04T17:28:56.583Z,19.60
2022-09-04T17:29:16.213Z,19.60
2022-09-04T17:29:16.514Z,19.50
2022-09-04T17:31:31.779Z,19.40
2022-09-04T17:39:52.913Z,19.40
2022-09-04T17:40:36.303Z,19.30
2022-09-04T17:41:34.558Z,19.30
2022-09-04T17:42:18.323Z,19.20
2022-09-04T17:44:45.194Z,19.10
2022-09-04T17:47:11.745Z,19.10
2022-09-04T17:49:39.309Z,19.00
2022-09-04T17:52:05.812Z,19.00
2022-09-04T17:54:32.366Z,18.90
2022-09-04T17:56:58.966Z,18.90
2022-09-04T17:59:25.524Z,18.80
2022-09-04T18:01:52.109Z,18.70
2022-09-04T18:04:21.939Z,18.70
2022-09-04T18:06:49.076Z,18.70
2022-09-04T18:09:15.631Z,18.60
2022-09-04T18:12:00.363Z,18.60
2022-09-04T18:14:27.302Z,18.60
2022-09-04T18:17:12.011Z,18.50
2022-09-04T18:19:39.506Z,18.50
2022-09-04T18:22:25.202Z,18.40
2022-09-04T18:24:52.610Z,18.40
2022-09-04T18:27:19.131Z,18.40
2022-09-04T18:32:43.182Z,18.30
2022-09-04T18:37:10.293Z,18.30
2022-09-04T18:37:20.593Z,18.20
2022-09-04T18:38:05.310Z,18.10
2022-09-04T18:40:40.709Z,18.10
2022-09-04T18:50:31.844Z,18.10
2022-09-04T18:50:34.631Z,18.00
2022-09-04T18:50:36.971Z,18.00
2022-09-04T18:51:38.103Z,18.00
2022-09-04T18:54:04.645Z,17.90
2022-09-04T18:56:31.184Z,17.80
2022-09-04T18:58:57.750Z,17.80
2022-09-04T19:01:27.212Z,17.80
2022-09-04T19:03:54.217Z,17.80
2022-09-04T19:06:20.774Z,17.70
2022-09-04T19:08:47.837Z,17.70
2022-09-04T19:11:21.053Z,17.70
2022-09-04T19:13:48.079Z,17.60
2022-09-04T19:16:14.663Z,17.50
2022-09-04T19:18:41.328Z,17.50
2022-09-04T19:21:08.153Z,17.40
2022-09-04T19:23:36.593Z,17.40
2022-09-04T19:26:03.150Z,17.30
2022-09-04T19:28:29.696Z,17.30
2022-09-04T19:30:56.309Z,17.30
2022-09-04T19:33:22.809Z,17.20
2022-09-04T19:35:49.384Z,17.20
2022-09-04T19:44:15.332Z,17.20
2022-09-04T19:45:57.736Z,17.10
2022-09-04T19:46:18.774Z,17.00
2022-09-04T19:46:42.366Z,17.00
2022-09-04T19:49:33.429Z,17.00
2022-09-04T19:53:32.969Z,16.90
2022-09-04T19:54:43.409Z,16.90
2022-09-04T19:57:32.521Z,16.80
2022-09-04T20:00:00.832Z,16.70
2022-09-04T20:02:46.920Z,16.70
2022-09-04T20:05:13.495Z,16.60
2022-09-04T20:07:41.680Z,16.50
2022-09-04T20:10:08.349Z,16.50
2022-09-04T20:12:34.927Z,16.40
2022-09-04T20:15:01.462Z,16.40
2022-09-04T20:17:27.967Z,16.30
2022-09-04T20:19:54.461Z,16.30
2022-09-04T20:22:21.135Z,16.20
2022-09-04T20:25:01.661Z,16.10
2022-09-04T20:27:29.002Z,16.00
2022-09-04T20:29:55.558Z,16.00
2022-09-04T20:32:22.195Z,15.90
2022-09-04T20:34:48.806Z,15.90
2022-09-04T20:37:15.357Z,15.80
2022-09-04T20:39:41.997Z,15.80
2022-09-04T20:42:08.653Z,15.70
2022-09-04T20:44:40.727Z,15.70
2022-09-04T20:52:48.681Z,15.60
2022-09-04T20:52:49.952Z,15.60
2022-09-04T20:53:12.380Z,15.60
2022-09-04T20:55:46.343Z,15.60
2022-09-04T21:03:09.941Z,15.50
2022-09-04T21:03:17.934Z,15.50
2022-09-04T21:03:46.667Z,15.50
2022-09-04T21:06:13.337Z,15.50
2022-09-04T21:08:39.899Z,15.40
2022-09-04T21:11:18.243Z,15.40
2022-09-04T21:13:52.899Z,15.40
2022-09-04T21:16:19.516Z,15.40
2022-09-04T21:18:46.102Z,15.40
2022-09-04T21:21:32.671Z,15.30
2022-09-04T21:24:03.421Z,15.30
2022-09-04T21:26:32.330Z,15.30
2022-09-04T21:29:10.959Z,15.20
2022-09-04T21:31:44.146Z,15.20
2022-09-04T21:34:11.642Z,15.20
2022-09-04T21:36:38.225Z,15.20
2022-09-04T21:39:04.730Z,15.10
2022-09-04T21:41:31.289Z,15.00
2022-09-04T21:43:57.863Z,15.00
2022-09-04T21:46:24.441Z,14.90
2022-09-04T21:48:55.622Z,14.90
2022-09-04T21:51:29.112Z,14.80
2022-09-04T21:53:55.956Z,14.80
2022-09-04T22:00:25.384Z,14.70
2022-09-04T22:02:43.814Z,14.70
2022-09-04T22:02:47.216Z,14.60
2022-09-04T22:04:42.772Z,14.60
2022-09-04T22:09:48.618Z,14.50
2022-09-04T22:13:30.042Z,14.50
2022-09-04T22:13:46.219Z,14.40
2022-09-04T22:15:30.660Z,14.40
2022-09-04T22:17:57.234Z,14.30
2022-09-04T22:20:23.798Z,14.30
2022-09-04T22:22:50.783Z,14.20
2022-09-04T22:25:17.290Z,14.20
2022-09-04T22:28:07.391Z,14.20
2022-09-04T22:30:32.666Z,14.10
2022-09-04T22:32:59.180Z,14.10
2022-09-04T22:35:27.818Z,14.10
2022-09-04T22:38:02.809Z,14.00
2022-09-04T22:40:29.330Z,14.00
2022-09-04T22:42:55.868Z,14.00
2022-09-04T22:45:22.423Z,14.00
2022-09-04T22:47:48.972Z,14.00
2022-09-04T22:50:15.563Z,14.00
2022-09-04T22:52:42.128Z,13.90
2022-09-04T22:55:23.327Z,13.90
2022-09-04T22:57:55.330Z,13.90
2022-09-04T23:00:21.899Z,13.90
2022-09-04T23:03:07.623Z,13.80
2022-09-04T23:05:34.963Z,13.80
2022-09-04T23:13:44.485Z,13.80
2022-09-04T23:13:47.121Z,13.70
2022-09-04T23:14:01.899Z,13.70
2022-09-04T23:16:26.278Z,13.60
2022-09-04T23:20:48.796Z,13.60
2022-09-04T23:26:34.067Z,13.60
2022-09-04T23:26:50.366Z,13.50
2022-09-04T23:27:14.672Z,13.50
2022-09-04T23:29:55.813Z,13.50
2022-09-04T23:32:26.052Z,13.50
2022-09-04T23:35:14.982Z,13.40
2022-09-04T23:37:39.157Z,13.40
2022-09-04T23:40:05.762Z,13.40
2022-09-04T23:42:32.375Z,13.40
2022-09-04T23:44:58.978Z,13.40
2022-09-04T23:47:47.986Z,13.40
2022-09-04T23:50:12.053Z,13.40
2022-09-04T23:52:48.582Z,13.30
2022-09-04T23:55:15.948Z,13.30
2022-09-04T23:57:42.497Z,13.30
